Stations météo

réclame
Mon MeteoGroup
Rodkallen, Suède (2188): Température de l'air & dewpoint: 16.04.2019 16:00:00 - 22.04.2019 16:00:00 (CEST)Rodkallen, Suède (2188): Vitesse du vent & gusts: 16.04.2019 16:00:00 - 22.04.2019 16:00:00 (CEST)Rodkallen, Suède (2188): Direction du vent: 16.04.2019 16:00:00 - 22.04.2019 16:00:00 (CEST)Rodkallen, Suède (2188): visibility: 16.04.2019 16:00:00 - 22.04.2019 16:00:00 (CEST)Rodkallen, Suède (2188): Quantités de précipitations: 16.04.2019 16:00:00 - 22.04.2019 16:00:00 (CEST)
Date & Time tt [°C] td [°C] ff [km/h] ff [knt] fx [km/h] fx [knt] dd vv [km] rr [mm]
22.04.2019 16:00:00 3,6 2,3 25 13 32 18 S 40 0,0
22.04.2019 15:00:00 3,8 2,0 27 14 32 17 S 50 0,0
22.04.2019 14:00:00 3,6 2,0 19 11 24 13 SSE 46 0,0
22.04.2019 13:00:00 3,7 1,9 14 8 20 11 SSE 47 0,0
22.04.2019 12:00:00 3,6 2,1 16 9 19 10 S 41 0,0
22.04.2019 11:00:00 3,4 1,8 16 9 18 10 SSW 50 0,0
22.04.2019 10:00:00 3,6 2,0 11 6 14 8 SSW 39 0,0
22.04.2019 09:00:00 3,0 2,0 15 8 19 10 SW 50 0,0
22.04.2019 08:00:00 2,6 1,9 15 8 19 10 SW 46 0,0
22.04.2019 07:00:00 2,4 1,8 16 9 18 10 SSW 30 0,0
22.04.2019 06:00:00 2,2 1,6 13 7 16 8 SSW 29 0,0
22.04.2019 05:00:00 2,4 2,0 13 7 20 11 SSW 37 0,0
22.04.2019 04:00:00 2,3 1,9 15 8 18 10 SSW 26 0,0
22.04.2019 03:00:00 2,5 2,1 18 10 22 12 SW 27 0,0
22.04.2019 02:00:00 2,6 2,2 19 10 26 14 SSW 16 0,0
22.04.2019 01:00:00 - - - - 29 15 - - -
22.04.2019 00:00:00 2,9 2,5 25 14 30 16 SSW 14 0,0
21.04.2019 23:00:00 3,0 2,4 27 15 34 19 SSW 13 0,0
21.04.2019 22:00:00 3,3 2,4 31 17 39 21 SSW 26 0,0
21.04.2019 21:00:00 3,5 2,5 32 18 38 21 SSW 35 0,0
21.04.2019 20:00:00 3,2 2,2 30 16 37 20 SSW 31 0,0
21.04.2019 19:00:00 3,4 2,2 31 17 40 22 S 35 0,0
21.04.2019 18:00:00 3,9 2,6 32 17 40 22 SSW 45 0,0
21.04.2019 17:00:00 3,9 2,3 33 18 41 22 SSW 30 0,0
21.04.2019 16:00:00 4,1 2,3 34 19 41 22 SSW 36 0,0
21.04.2019 15:00:00 3,5 1,7 31 17 39 21 S 28 0,0
21.04.2019 14:00:00 3,6 1,8 29 16 35 19 S 30 0,3
21.04.2019 13:00:00 3,4 1,8 22 12 35 19 SSW 19 0,7
21.04.2019 12:00:00 3,3 1,5 27 14 35 19 S 23 0,4
21.04.2019 11:00:00 3,5 1,2 27 15 35 19 S 32 0,0
21.04.2019 10:00:00 3,6 1,0 24 13 31 17 SSW 40 0,0
21.04.2019 09:00:00 3,6 0,8 29 15 33 18 SSW 37 0,0
21.04.2019 08:00:00 3,2 1,2 26 14 29 16 S 39 0,0
21.04.2019 07:00:00 3,3 1,3 26 14 30 16 SSW 34 0,0
21.04.2019 06:00:00 3,1 1,3 22 12 33 18 S 33 0,0
21.04.2019 05:00:00 3,1 1,1 28 15 34 18 S 48 0,0
21.04.2019 04:00:00 - - - - 30 16 - - -
21.04.2019 03:00:00 4,1 1,3 25 13 28 15 S 50 0,0
21.04.2019 02:00:00 4,0 1,5 21 12 24 13 SSW 50 0,0
21.04.2019 01:00:00 3,8 1,8 20 11 26 14 SSW 40 0,0
21.04.2019 00:00:00 4,0 1,9 21 12 27 15 SSW 50 0,0
20.04.2019 23:00:00 3,9 2,1 21 11 24 13 S 46 0,0
20.04.2019 22:00:00 3,6 1,8 19 11 22 12 SSW 38 0,0
20.04.2019 21:00:00 3,9 1,8 18 10 23 12 S 37 0,0
20.04.2019 20:00:00 4,1 1,5 22 12 27 15 S 35 0,0
20.04.2019 19:00:00 4,5 1,5 22 12 28 15 S 39 0,0
20.04.2019 18:00:00 4,7 1,5 23 12 26 14 S 34 0,0
20.04.2019 17:00:00 5,0 2,0 21 11 24 13 S 39 0,0
20.04.2019 16:00:00 5,1 2,1 18 10 20 11 S 32 0,0
20.04.2019 15:00:00 4,9 2,1 16 8 19 11 SSE 34 0,0
20.04.2019 14:00:00 5,9 2,4 14 7 15 8 S 35 0,0
20.04.2019 13:00:00 6,3 2,6 10 6 13 7 SSW 34 0,0
20.04.2019 12:00:00 6,7 2,6 6 4 12 6 SSW 31 0,0
20.04.2019 11:00:00 4,6 2,6 9 5 14 8 SW 37 0,0
20.04.2019 10:00:00 3,9 2,1 14 8 18 10 WSW 32 0,0
20.04.2019 09:00:00 3,7 1,9 16 9 19 11 SW 29 0,0
20.04.2019 08:00:00 3,7 2,1 16 9 18 10 SW 28 0,0
20.04.2019 07:00:00 3,8 2,5 18 10 21 11 SW 31 0,0
20.04.2019 06:00:00 3,7 2,7 17 9 19 10 SW 23 0,0
20.04.2019 05:00:00 3,6 2,7 15 8 20 11 SW 21 0,0
20.04.2019 04:00:00 3,6 3,0 14 8 19 10 SSW 20 0,0
20.04.2019 03:00:00 3,7 3,3 17 9 18 10 S 17 0,0
20.04.2019 02:00:00 3,5 3,1 15 8 17 9 SW 7 0,1
20.04.2019 01:00:00 3,3 2,9 13 7 15 8 WSW 8 0,0
20.04.2019 00:00:00 3,5 2,9 11 6 16 9 WSW 9 0,1
19.04.2019 23:00:00 - - - - 17 9 - - -
19.04.2019 22:00:00 3,3 2,0 15 8 20 11 WSW 13 0,1
19.04.2019 21:00:00 3,8 1,7 18 10 27 14 SW 16 0,0
19.04.2019 20:00:00 4,1 1,5 23 12 27 15 SW 22 0,0
19.04.2019 19:00:00 3,8 1,5 22 12 26 14 SW 30 0,0
19.04.2019 18:00:00 3,7 1,7 15 8 17 9 SW 28 0,0
19.04.2019 17:00:00 3,9 1,8 16 9 20 11 SSW 29 0,0
19.04.2019 16:00:00 5,1 1,9 11 6 15 8 S 29 0,0
19.04.2019 15:00:00 - - - - 14 8 - - -
19.04.2019 14:00:00 5,5 1,6 9 5 11 6 SW 39 0,0
19.04.2019 13:00:00 5,9 2,0 6 4 10 5 WSW 34 0,0
19.04.2019 12:00:00 4,3 1,3 8 5 13 7 W 26 0,0
19.04.2019 11:00:00 3,4 1,3 11 6 14 8 W 27 0,0
19.04.2019 10:00:00 3,1 1,0 13 7 18 10 WNW 35 0,0
19.04.2019 09:00:00 3,4 0,8 10 5 18 10 WNW 33 0,0
19.04.2019 08:00:00 3,1 0,7 13 7 16 9 WNW 45 0,0
19.04.2019 07:00:00 3,2 0,6 13 7 17 9 W 43 0,0
19.04.2019 06:00:00 3,7 0,4 16 9 19 10 W 50 0,0
19.04.2019 05:00:00 2,9 0,6 11 6 15 8 WSW 48 0,0
19.04.2019 04:00:00 3,4 0,1 9 5 19 11 W 50 0,0
19.04.2019 03:00:00 3,4 0,6 15 8 18 10 W 26 0,0
19.04.2019 02:00:00 3,4 0,3 14 8 20 11 WSW 48 0,0
19.04.2019 01:00:00 3,6 0,1 16 9 24 13 WSW 50 0,0
19.04.2019 00:00:00 4,1 -0,3 23 12 28 15 WSW 50 0,0
18.04.2019 23:00:00 4,0 -0,4 23 13 29 16 W 50 0,0
18.04.2019 22:00:00 3,4 0,6 21 11 23 12 W 50 0,0
18.04.2019 21:00:00 3,1 1,3 16 9 20 11 W 50 0,0
18.04.2019 20:00:00 1,9 0,9 8 5 10 5 WSW 25 0,0
18.04.2019 19:00:00 2,1 0,6 7 4 11 6 SW 36 0,0
18.04.2019 18:00:00 2,5 0,2 9 5 11 6 S 38 0,0
18.04.2019 17:00:00 3,1 -0,2 10 6 16 9 S 50 0,0
18.04.2019 16:00:00 3,2 -0,4 15 8 23 12 SSE 46 0,0
18.04.2019 15:00:00 3,2 -0,6 16 9 22 12 SSE 39 0,0
18.04.2019 14:00:00 3,2 -0,3 17 9 23 12 SSE 42 0,0
18.04.2019 13:00:00 2,8 -0,1 16 9 20 11 SSE 41 0,0
18.04.2019 12:00:00 3,0 -0,1 14 8 17 9 S 43 0,0
18.04.2019 11:00:00 3,0 -0,1 12 6 16 9 S 46 0,0
18.04.2019 10:00:00 2,8 -0,3 11 6 13 7 S 46 0,0
18.04.2019 09:00:00 2,4 -0,5 8 5 11 6 SSE 39 0,0
18.04.2019 08:00:00 1,9 0,0 8 4 10 5 SSE 41 0,0
18.04.2019 07:00:00 0,8 -0,5 10 5 11 6 S 50 0,0
18.04.2019 06:00:00 0,7 -0,6 6 3 8 4 E 50 0,0
18.04.2019 05:00:00 0,5 -1,1 0 0 13 7 N 50 0,0
18.04.2019 04:00:00 1,1 -0,7 8 4 8 4 WSW 50 0,0
18.04.2019 03:00:00 1,1 -0,8 4 2 9 5 W 50 0,0
18.04.2019 02:00:00 1,5 -0,6 6 4 10 6 WSW 50 0,0
18.04.2019 01:00:00 1,5 -0,7 9 5 10 6 SW 50 0,0
18.04.2019 00:00:00 2,1 -0,2 8 4 11 6 WSW 50 0,0
17.04.2019 23:00:00 2,4 -0,4 12 6 17 9 WSW 50 0,0
17.04.2019 22:00:00 2,6 -0,5 13 7 16 9 WSW 50 0,0
17.04.2019 21:00:00 2,3 -0,3 13 7 16 9 WSW 50 0,0
17.04.2019 20:00:00 2,4 0,0 9 5 10 5 WSW 50 0,0
17.04.2019 19:00:00 2,8 0,2 9 5 10 5 WSW 50 0,0
17.04.2019 18:00:00 3,0 0,2 9 5 11 6 SSW 46 0,0
17.04.2019 17:00:00 6,6 -1,3 0 0 9 5 N 50 0,0
17.04.2019 16:00:00 5,3 -2,1 8 4 15 8 N 43 0,0
17.04.2019 15:00:00 4,0 -1,4 12 6 18 10 N 50 0,0
17.04.2019 14:00:00 4,0 -1,4 8 5 16 8 N 50 0,0
17.04.2019 13:00:00 4,0 -1,2 14 7 16 9 N 43 0,0
17.04.2019 12:00:00 3,2 -1,0 11 6 18 10 N 47 0,0
17.04.2019 11:00:00 2,3 -1,1 11 6 21 12 N 43 0,0
17.04.2019 10:00:00 1,7 -1,4 16 9 25 13 N 45 0,0
17.04.2019 09:00:00 1,5 -1,7 20 11 26 14 N 50 0,0
17.04.2019 08:00:00 0,7 -2,0 13 7 22 12 NNW 50 0,0
17.04.2019 07:00:00 -0,2 -2,1 14 7 22 12 NNW 50 0,0
17.04.2019 06:00:00 -0,8 -1,8 16 8 21 11 NNW 50 0,0
17.04.2019 05:00:00 -0,1 -0,9 13 7 18 10 NNW 50 0,0
17.04.2019 04:00:00 0,5 -0,4 9 5 13 7 NW 50 0,0
17.04.2019 03:00:00 1,6 0,1 8 5 16 8 SW 50 0,0
17.04.2019 02:00:00 2,0 0,2 14 8 16 9 SSW 50 0,0
17.04.2019 01:00:00 2,1 -0,2 13 7 16 8 S 50 0,0
17.04.2019 00:00:00 2,3 -0,1 13 7 20 11 S 50 0,0
16.04.2019 23:00:00 2,4 -0,2 10 6 17 9 SSE 50 0,0
16.04.2019 22:00:00 2,2 -0,1 14 8 18 10 S 50 0,0
16.04.2019 21:00:00 2,4 -0,5 16 9 19 11 S 50 0,0
16.04.2019 20:00:00 2,6 -0,7 14 8 18 10 S 50 0,0
16.04.2019 19:00:00 2,8 -0,5 15 8 19 10 S 50 0,0
16.04.2019 18:00:00 3,0 -0,6 10 6 18 10 SSE 47 0,0
16.04.2019 17:00:00 2,9 0,0 14 8 18 10 SSE 45 0,0
16.04.2019 16:00:00 2,9 0,1 10 5 17 9 SSE 48 0,0

tt = Température de l'air
td = dewpoint
ff = Vitesse du vent
fx = gusts
dd = Direction du vent
vv = visibility
rr = Quantités de précipitations

stations d'obs. à proximité